Time;durP1;ratioP1;P1;durP2;ratioP2;P2;SDS_P1;SDS_P2;PMS_P1;PMS_P2;Temp;Humidity;BMP_temperature;BMP_pressure;BME280_temperature;BME280_humidity;BME280_pressure;Samples;Min_cycle;Max_cycle;Signal;HPM_P1;HPM_P2
2022/10/12 00:01:01;;;;;;;4.53;2.33;;;7.00;99.90;;;;;;5094247;28;20035;-80
2022/10/12 00:03:27;;;;;;;8.23;2.58;;;7.00;99.90;;;;;;5093768;28;20036;-80
2022/10/12 00:06:19;;;;;;;4.63;2.20;;;7.00;99.90;;;;;;5094137;28;20527;-80
2022/10/12 00:08:45;;;;;;;5.00;2.35;;;7.00;99.90;;;;;;5077293;28;20043;-79
2022/10/12 00:11:14;;;;;;;4.82;2.13;;;7.00;99.90;;;;;;5094008;28;20050;-79
2022/10/12 00:13:40;;;;;;;5.13;1.95;;;7.00;99.90;;;;;;5076733;28;20071;-80
2022/10/12 00:16:07;;;;;;;4.38;2.42;;;7.00;99.90;;;;;;5093876;28;20083;-80
2022/10/12 00:18:33;;;;;;;3.45;2.25;;;7.00;99.90;;;;;;5093752;28;20123;-80
2022/10/12 00:21:16;;;;;;;3.78;2.13;;;7.00;99.90;;;;;;5077024;28;20068;-79
2022/10/12 00:23:43;;;;;;;8.60;2.42;;;6.90;99.90;;;;;;5094291;28;20096;-80
2022/10/12 00:26:17;;;;;;;3.05;1.65;;;6.90;99.90;;;;;;5093979;28;20505;-80
2022/10/12 00:28:43;;;;;;;3.03;1.42;;;6.90;99.90;;;;;;5093983;28;20508;-80
2022/10/12 00:31:18;;;;;;;4.65;1.17;;;6.80;99.90;;;;;;5093335;28;20093;-79
2022/10/12 00:33:45;;;;;;;3.15;1.10;;;6.80;99.90;;;;;;5092124;28;20050;-80
2022/10/12 00:36:11;;;;;;;2.47;1.10;;;6.70;99.90;;;;;;5093291;28;20036;-80
2022/10/12 00:38:37;;;;;;;2.63;0.90;;;6.60;99.90;;;;;;5093319;28;20040;-79
2022/10/12 00:41:02;;;;;;;1.80;1.20;;;6.60;99.90;;;;;;5076248;28;20590;-80
2022/10/12 00:43:36;;;;;;;3.35;1.30;;;6.60;99.90;;;;;;5093767;28;20028;-79
2022/10/12 00:46:10;;;;;;;;;;;6.50;99.90;;;;;;5093801;28;20578;-80
2022/10/12 00:48:37;;;;;;;3.42;1.40;;;6.50;99.90;;;;;;5076503;28;19916;-78
2022/10/12 00:51:03;;;;;;;3.72;1.70;;;6.50;99.90;;;;;;5093001;28;20121;-80
2022/10/12 00:53:44;;;;;;;5.25;2.10;;;6.50;99.90;;;;;;5093564;28;20054;-80
2022/10/12 00:56:22;;;;;;;3.30;2.13;;;6.40;99.90;;;;;;5093466;28;20059;-80
2022/10/12 00:58:49;;;;;;;3.50;2.28;;;6.40;99.90;;;;;;5093613;28;20028;-80
2022/10/12 01:01:16;;;;;;;4.25;2.30;;;6.40;99.90;;;;;;5093097;28;20071;-79
2022/10/12 01:03:42;;;;;;;4.43;2.42;;;6.40;99.90;;;;;;5093360;28;20122;-79
2022/10/12 01:06:08;;;;;;;6.43;3.15;;;6.40;99.90;;;;;;5093098;28;20097;-78
2022/10/12 01:08:34;;;;;;;6.00;2.75;;;6.40;99.90;;;;;;5093651;28;20051;-80
2022/10/12 01:11:00;;;;;;;5.03;2.75;;;6.40;99.90;;;;;;5092575;28;20086;-80
2022/10/12 01:13:25;;;;;;;5.63;2.90;;;6.30;99.90;;;;;;5093340;28;20047;-79
2022/10/12 01:16:05;;;;;;;7.63;2.80;;;6.30;99.90;;;;;;5093109;28;20043;-79
2022/10/12 01:19:01;;;;;;;5.70;2.33;;;6.30;99.90;;;;;;5092935;28;20068;-79
2022/10/12 01:21:28;;;;;;;4.28;2.65;;;6.30;99.90;;;;;;5092721;28;20043;-79
2022/10/12 01:24:01;;;;;;;5.15;2.38;;;6.20;99.90;;;;;;5075771;28;20042;-79
2022/10/12 01:26:55;;;;;;;6.25;2.70;;;6.30;99.90;;;;;;5092778;28;20040;-79
2022/10/12 01:29:45;;;;;;;5.70;2.78;;;6.30;99.90;;;;;;5093408;28;20071;-79
2022/10/12 01:32:26;;;;;;;5.03;2.65;;;6.20;99.90;;;;;;5092702;28;20443;-79
2022/10/12 01:34:54;;;;;;;4.50;2.63;;;6.20;99.90;;;;;;5092668;28;20047;-79
2022/10/12 01:37:37;;;;;;;8.55;3.15;;;6.10;99.90;;;;;;5092416;28;20040;-79
2022/10/12 01:40:07;;;;;;;4.68;2.90;;;6.20;99.90;;;;;;5092688;28;20054;-79
2022/10/12 01:42:38;;;;;;;4.50;2.75;;;6.20;99.90;;;;;;5075221;28;20036;-79
2022/10/12 01:45:09;;;;;;;5.93;3.22;;;6.20;99.90;;;;;;5091931;28;20044;-79
2022/10/12 01:47:38;;;;;;;4.72;2.60;;;6.10;99.90;;;;;;5092430;28;20119;-80
2022/10/12 01:50:06;;;;;;;4.85;2.58;;;6.20;99.90;;;;;;5092621;28;20051;-79
2022/10/12 01:52:50;;;;;;;6.18;3.20;;;6.10;99.90;;;;;;5092168;28;20036;-79
2022/10/12 01:55:28;;;;;;;5.35;2.85;;;6.20;99.90;;;;;;5091798;28;20040;-78
2022/10/12 01:58:25;;;;;;;5.72;3.17;;;6.20;99.90;;;;;;5105450;28;20035;-80
2022/10/12 02:00:58;;;;;;;7.38;3.50;;;6.20;99.90;;;;;;5075332;28;20032;-79
2022/10/12 02:03:42;;;;;;;4.97;3.10;;;6.20;99.90;;;;;;5092111;28;20036;-79
2022/10/12 02:06:17;;;;;;;6.47;3.35;;;6.30;99.90;;;;;;5091982;28;20278;-79
2022/10/12 02:08:47;;;;;;;9.07;3.50;;;6.30;99.90;;;;;;5092077;28;20047;-79
2022/10/12 02:11:16;;;;;;;7.47;3.28;;;6.40;99.90;;;;;;5091999;28;20413;-79
2022/10/12 02:14:11;;;;;;;5.07;3.00;;;6.40;99.90;;;;;;5092018;28;20032;-79
2022/10/12 02:16:42;;;;;;;5.13;3.35;;;6.30;99.90;;;;;;5090281;28;20132;-79
2022/10/12 02:19:12;;;;;;;7.22;3.20;;;6.40;99.90;;;;;;5091784;28;20036;-79
2022/10/12 02:21:39;;;;;;;5.75;2.70;;;6.40;99.90;;;;;;5091558;28;20498;-79
2022/10/12 02:24:08;;;;;;;6.95;2.97;;;6.40;99.90;;;;;;5091992;28;20457;-79
2022/10/12 02:26:39;;;;;;;4.07;1.83;;;6.40;99.90;;;;;;5075118;28;20044;-79
2022/10/12 02:29:08;;;;;;;4.75;2.10;;;6.40;99.90;;;;;;5091731;28;20040;-79
2022/10/12 02:31:35;;;;;;;2.80;1.55;;;6.40;99.90;;;;;;5091167;28;20497;-80
2022/10/12 02:34:11;;;;;;;1.80;1.20;;;6.40;99.90;;;;;;5091057;28;20669;-79
2022/10/12 02:36:47;;;;;;;3.03;1.38;;;6.40;99.90;;;;;;5091420;28;20036;-78
2022/10/12 02:39:42;;;;;;;2.30;1.35;;;6.30;99.90;;;;;;5091276;28;20082;-79
2022/10/12 02:42:12;;;;;;;4.65;1.90;;;6.30;99.90;;;;;;5091793;28;20040;-79
2022/10/12 02:44:40;;;;;;;2.85;1.58;;;6.30;99.90;;;;;;5091342;28;20512;-78
2022/10/12 02:47:09;;;;;;;5.63;2.53;;;6.40;99.90;;;;;;5091607;28;20067;-79
2022/10/12 02:49:36;;;;;;;6.03;2.47;;;6.30;99.90;;;;;;5091374;28;20426;-79
2022/10/12 02:52:06;;;;;;;6.10;2.75;;;6.30;99.90;;;;;;5091018;28;20051;-79
2022/10/12 02:54:32;;;;;;;4.35;2.70;;;6.30;99.90;;;;;;5091116;28;20059;-79
2022/10/12 02:56:57;;;;;;;6.28;2.72;;;6.30;99.90;;;;;;5099135;28;20128;-79
2022/10/12 02:59:23;;;;;;;4.13;2.40;;;6.30;99.90;;;;;;5104613;28;20528;-79
2022/10/12 03:01:48;;;;;;;5.45;3.10;;;6.30;99.90;;;;;;5095312;28;20033;-79
2022/10/12 03:04:14;;;;;;;5.05;2.78;;;6.30;99.90;;;;;;5095491;28;20112;-79
2022/10/12 03:06:41;;;;;;;5.97;2.90;;;6.30;99.90;;;;;;5078178;28;20096;-79
2022/10/12 03:09:07;;;;;;;5.70;3.00;;;6.30;99.90;;;;;;5095356;28;20071;-79
2022/10/12 03:11:33;;;;;;;7.40;3.00;;;6.30;99.90;;;;;;5095141;28;20056;-78
2022/10/12 03:13:59;;;;;;;3.35;2.55;;;6.30;99.90;;;;;;5094983;28;20044;-79
2022/10/12 03:16:24;;;;;;;4.60;2.22;;;6.30;99.90;;;;;;5094810;28;20501;-78
2022/10/12 03:18:50;;;;;;;4.88;2.15;;;6.20;99.90;;;;;;5095196;28;20032;-79
2022/10/12 03:21:16;;;;;;;5.25;2.00;;;6.20;99.90;;;;;;5094492;28;20063;-79
2022/10/12 03:23:41;;;;;;;3.30;2.08;;;6.20;99.90;;;;;;5094698;28;20038;-79
2022/10/12 03:26:07;;;;;;;4.10;2.40;;;6.20;99.90;;;;;;5095156;28;20108;-78
2022/10/12 03:28:32;;;;;;;2.92;2.22;;;6.10;99.90;;;;;;5095588;28;20569;-79
2022/10/12 03:30:58;;;;;;;4.65;2.38;;;6.00;99.90;;;;;;5077469;28;20093;-79
2022/10/12 03:33:24;;;;;;;4.25;2.40;;;6.00;99.90;;;;;;5077215;28;20408;-78
2022/10/12 03:35:50;;;;;;;4.57;2.33;;;6.00;99.90;;;;;;5093633;28;20043;-79
2022/10/12 03:38:17;;;;;;;5.95;2.55;;;6.00;99.90;;;;;;5093995;28;20036;-78
2022/10/12 03:40:43;;;;;;;3.67;2.20;;;6.00;99.90;;;;;;5094319;28;20092;-79
2022/10/12 03:43:09;;;;;;;3.35;2.00;;;6.00;99.90;;;;;;5094145;28;20047;-79
2022/10/12 03:45:35;;;;;;;4.90;2.17;;;6.10;99.90;;;;;;5094421;28;20048;-79
2022/10/12 03:48:01;;;;;;;3.60;2.10;;;6.00;99.90;;;;;;5094105;28;20044;-80
2022/10/12 03:50:26;;;;;;;4.85;1.90;;;6.00;99.90;;;;;;5094330;28;20405;-80
2022/10/12 03:52:52;;;;;;;5.32;2.05;;;6.00;99.90;;;;;;5094289;28;20118;-80
2022/10/12 03:55:18;;;;;;;5.05;2.45;;;6.00;99.90;;;;;;5093924;28;20044;-78
2022/10/12 03:57:44;;;;;;;3.78;2.15;;;6.10;99.90;;;;;;5105596;28;20038;-78
2022/10/12 04:00:11;;;;;;;5.07;2.15;;;6.00;99.90;;;;;;5096096;28;20093;-78
2022/10/12 04:02:36;;;;;;;5.95;2.38;;;6.00;99.90;;;;;;5093665;28;20078;-79
2022/10/12 04:05:02;;;;;;;4.75;2.25;;;6.10;99.90;;;;;;5093769;28;20032;-78
2022/10/12 04:07:28;;;;;;;5.78;2.05;;;6.00;99.90;;;;;;5076555;28;20036;-78
2022/10/12 04:09:53;;;;;;;4.32;2.28;;;6.10;99.90;;;;;;5093260;28;20068;-78
2022/10/12 04:12:19;;;;;;;8.82;3.10;;;6.00;99.90;;;;;;5092995;28;20123;-78
2022/10/12 04:14:44;;;;;;;3.28;2.30;;;6.00;99.90;;;;;;5093257;28;20041;-78
2022/10/12 04:17:11;;;;;;;5.95;2.72;;;6.00;99.90;;;;;;5093188;28;20470;-79
2022/10/12 04:19:36;;;;;;;5.28;2.80;;;6.00;99.90;;;;;;5093663;28;20032;-79
2022/10/12 04:22:02;;;;;;;5.60;2.60;;;6.00;99.90;;;;;;5093197;28;20039;-79
2022/10/12 04:24:27;;;;;;;5.55;3.03;;;6.00;99.90;;;;;;5093695;28;20498;-79
2022/10/12 04:26:53;;;;;;;5.60;3.05;;;6.00;99.90;;;;;;5077142;28;20478;-78
2022/10/12 04:29:18;;;;;;;4.70;2.50;;;6.00;99.90;;;;;;5093551;28;20067;-79
2022/10/12 04:31:44;;;;;;;5.53;2.30;;;6.00;99.90;;;;;;5093284;28;20123;-79
2022/10/12 04:34:09;;;;;;;3.30;2.30;;;6.00;99.90;;;;;;5092664;28;20036;-78
2022/10/12 04:36:35;;;;;;;3.55;2.30;;;5.90;99.90;;;;;;5092942;28;20533;-78
2022/10/12 04:39:00;;;;;;;5.18;2.33;;;5.90;99.90;;;;;;5092902;28;20040;-79
2022/10/12 04:41:26;;;;;;;3.67;2.33;;;5.90;99.90;;;;;;5092919;28;20043;-79
2022/10/12 04:43:52;;;;;;;5.55;2.40;;;6.00;99.90;;;;;;5093146;28;20115;-79
2022/10/12 04:46:17;;;;;;;6.47;2.58;;;5.90;99.90;;;;;;5093335;28;20093;-79
2022/10/12 04:48:43;;;;;;;3.90;2.13;;;5.90;99.90;;;;;;5093168;28;20081;-79
2022/10/12 04:51:09;;;;;;;5.25;2.22;;;5.90;99.90;;;;;;5092728;28;20043;-79
2022/10/12 04:53:34;;;;;;;4.28;2.60;;;5.80;99.90;;;;;;5092303;28;20115;-78
2022/10/12 04:56:04;;;;;;;6.13;3.00;;;5.90;99.90;;;;;;5092550;28;20086;-79
2022/10/12 04:58:30;;;;;;;6.30;2.38;;;5.80;99.90;;;;;;5107368;28;20393;-78
2022/10/12 05:00:56;;;;;;;6.18;2.70;;;5.80;99.90;;;;;;5075995;28;20393;-79
2022/10/12 05:03:22;;;;;;;3.38;2.35;;;5.70;99.90;;;;;;5092735;28;20040;-78
2022/10/12 05:05:48;;;;;;;3.80;2.40;;;5.70;99.90;;;;;;5092986;28;20036;-79
2022/10/12 05:08:14;;;;;;;4.47;2.60;;;5.70;99.90;;;;;;5092467;28;20040;-79
2022/10/12 05:10:39;;;;;;;3.70;2.38;;;5.70;99.90;;;;;;5092580;28;20039;-79
2022/10/12 05:13:05;;;;;;;4.28;2.53;;;5.70;99.90;;;;;;5092317;28;20144;-79
2022/10/12 05:15:31;;;;;;;4.45;2.40;;;5.60;99.90;;;;;;5093031;28;20591;-79
2022/10/12 05:17:57;;;;;;;3.17;2.35;;;5.60;99.90;;;;;;5092284;28;20047;-79
2022/10/12 05:20:22;;;;;;;4.07;2.50;;;5.60;99.90;;;;;;5093049;28;20047;-79
2022/10/12 05:22:48;;;;;;;4.53;2.20;;;5.60;99.90;;;;;;5092323;28;20549;-79
2022/10/12 05:25:13;;;;;;;3.67;2.40;;;5.50;99.90;;;;;;5092903;28;20044;-78
2022/10/12 05:27:39;;;;;;;3.55;2.25;;;5.50;99.90;;;;;;5093088;28;20032;-79
2022/10/12 05:30:06;;;;;;;2.60;2.10;;;5.50;99.90;;;;;;5092654;28;20056;-79
2022/10/12 05:32:31;;;;;;;4.65;2.10;;;5.40;99.90;;;;;;5092244;28;20078;-79
2022/10/12 05:34:57;;;;;;;4.80;2.60;;;5.40;99.90;;;;;;5092792;28;20036;-79
2022/10/12 05:37:22;;;;;;;4.80;2.47;;;5.40;99.90;;;;;;5092582;28;20040;-79
2022/10/12 05:39:48;;;;;;;3.22;2.05;;;5.40;99.90;;;;;;5093499;28;20047;-79
2022/10/12 05:42:14;;;;;;;4.68;2.30;;;5.30;99.90;;;;;;5092663;28;20119;-79
2022/10/12 05:44:40;;;;;;;3.72;2.40;;;5.30;99.90;;;;;;5092429;28;20028;-79
2022/10/12 05:47:06;;;;;;;5.63;2.35;;;5.30;99.90;;;;;;5092417;28;20043;-79
2022/10/12 05:49:32;;;;;;;2.70;2.03;;;5.30;99.90;;;;;;5097510;28;20036;-79
2022/10/12 05:51:57;;;;;;;3.13;1.60;;;5.30;99.90;;;;;;5102692;28;20040;-78
2022/10/12 05:54:23;;;;;;;2.10;1.80;;;5.30;99.90;;;;;;5093881;28;20541;-79
2022/10/12 05:56:48;;;;;;;2.25;1.50;;;5.30;99.90;;;;;;5096064;28;20863;-79
2022/10/12 05:59:14;;;;;;;2.30;1.65;;;5.20;99.90;;;;;;5102420;28;20046;-79
2022/10/12 06:01:39;;;;;;;4.70;1.90;;;5.30;99.90;;;;;;5091864;28;20040;-80
2022/10/12 06:04:05;;;;;;;3.35;2.20;;;5.20;99.90;;;;;;5092986;28;20040;-79
2022/10/12 06:06:31;;;;;;;6.57;2.70;;;5.20;99.90;;;;;;5092990;28;20089;-79
2022/10/12 06:08:56;;;;;;;4.05;2.90;;;5.20;99.90;;;;;;5091854;28;20039;-79
2022/10/12 06:11:22;;;;;;;5.38;3.10;;;5.20;99.90;;;;;;5075508;28;20070;-80
2022/10/12 06:13:48;;;;;;;5.30;3.45;;;5.20;99.90;;;;;;5092703;28;20024;-80
2022/10/12 06:16:13;;;;;;;5.68;3.03;;;5.20;99.90;;;;;;5091834;28;20506;-80
2022/10/12 06:18:39;;;;;;;6.32;3.08;;;5.20;99.90;;;;;;5092074;28;20036;-79
2022/10/12 06:21:05;;;;;;;5.60;3.10;;;5.20;99.90;;;;;;5093202;28;20036;-79
2022/10/12 06:23:30;;;;;;;6.45;3.40;;;5.20;99.90;;;;;;5092593;28;20069;-78
2022/10/12 06:25:56;;;;;;;7.40;3.35;;;5.20;99.90;;;;;;5092072;28;20506;-79
2022/10/12 06:28:21;;;;;;;6.63;3.95;;;5.20;99.90;;;;;;5092925;28;20040;-80
2022/10/12 06:30:55;;;;;;;6.65;3.60;;;5.20;99.90;;;;;;5091848;28;20040;-79
2022/10/12 06:33:21;;;;;;;7.60;3.70;;;5.20;99.90;;;;;;5075227;28;20044;-79
2022/10/12 06:35:47;;;;;;;8.55;3.60;;;5.10;99.90;;;;;;5091972;28;20119;-79
2022/10/12 06:38:13;;;;;;;7.00;4.25;;;5.20;99.90;;;;;;5092332;28;20085;-79
2022/10/12 06:40:38;;;;;;;7.15;4.28;;;5.20;99.90;;;;;;5091870;28;20085;-80
2022/10/12 06:43:04;;;;;;;7.15;4.50;;;5.30;99.90;;;;;;5092001;28;20040;-79
2022/10/12 06:45:30;;;;;;;11.43;5.82;;;5.30;99.90;;;;;;5092693;28;20048;-79
2022/10/12 06:47:56;;;;;;;10.77;6.05;;;5.40;99.90;;;;;;5091857;28;20044;-79
2022/10/12 06:50:22;;;;;;;10.20;6.45;;;5.40;99.90;;;;;;5091756;28;20071;-79
2022/10/12 06:52:47;;;;;;;11.77;6.50;;;5.50;99.90;;;;;;5092099;28;20068;-79
2022/10/12 06:55:13;;;;;;;15.00;6.05;;;5.60;99.90;;;;;;5091751;28;20621;-80
2022/10/12 06:57:38;;;;;;;11.07;6.13;;;5.60;99.90;;;;;;5102118;28;20036;-79
2022/10/12 07:00:06;;;;;;;9.45;5.63;;;5.70;99.90;;;;;;5094712;28;20485;-79
2022/10/12 07:02:32;;;;;;;11.15;5.47;;;5.70;99.90;;;;;;5090843;28;20124;-79
2022/10/12 07:04:58;;;;;;;8.57;5.75;;;5.80;99.90;;;;;;5090973;28;20036;-79
2022/10/12 07:07:23;;;;;;;10.02;5.97;;;5.90;99.90;;;;;;5090829;28;20043;-79
2022/10/12 07:09:50;;;;;;;12.73;6.03;;;5.90;99.90;;;;;;5090349;28;20032;-79
2022/10/12 07:12:16;;;;;;;14.23;6.68;;;6.00;99.90;;;;;;5089888;28;20119;-79
2022/10/12 07:14:41;;;;;;;13.07;6.28;;;6.10;99.90;;;;;;5090230;28;20140;-79
2022/10/12 07:17:07;;;;;;;13.63;7.25;;;6.20;99.90;;;;;;5090146;28;20043;-78
2022/10/12 07:19:32;;;;;;;13.75;6.50;;;6.40;99.90;;;;;;5074207;28;20036;-79
2022/10/12 07:21:58;;;;;;;14.38;6.53;;;6.50;99.90;;;;;;5090860;28;20067;-79
2022/10/12 07:24:23;;;;;;;12.05;6.50;;;6.60;99.90;;;;;;5091833;28;20501;-80
2022/10/12 07:26:50;;;;;;;15.90;7.22;;;6.70;99.90;;;;;;5091286;28;20408;-79
2022/10/12 07:29:16;;;;;;;12.85;6.40;;;6.90;99.90;;;;;;5090532;28;20145;-80
2022/10/12 07:31:41;;;;;;;11.43;6.50;;;7.00;99.90;;;;;;5091024;28;20077;-79
2022/10/12 07:34:07;;;;;;;15.10;6.35;;;7.10;99.90;;;;;;5090302;28;20032;-79
2022/10/12 07:36:33;;;;;;;13.25;6.57;;;7.20;99.90;;;;;;5090555;28;20043;-79
2022/10/12 07:38:59;;;;;;;13.25;6.35;;;7.30;99.90;;;;;;5090930;28;20128;-80
2022/10/12 07:41:26;;;;;;;16.42;6.57;;;7.50;99.90;;;;;;5090162;28;20115;-79
2022/10/12 07:43:55;;;;;;;11.95;6.68;;;7.60;99.90;;;;;;5077819;28;20093;-80
2022/10/12 07:46:21;;;;;;;11.98;6.88;;;7.70;99.90;;;;;;5094297;28;20040;-80
2022/10/12 07:48:46;;;;;;;14.13;7.10;;;7.80;99.90;;;;;;5095280;28;20517;-80
2022/10/12 07:51:12;;;;;;;12.45;6.90;;;7.90;99.90;;;;;;5078696;28;20051;-79
2022/10/12 07:53:38;;;;;;;15.25;7.47;;;8.10;99.90;;;;;;5094429;28;20040;-80
2022/10/12 07:56:06;;;;;;;17.55;6.70;;;8.20;99.90;;;;;;5094209;28;20097;-81
2022/10/12 07:58:32;;;;;;;14.68;6.65;;;8.40;99.90;;;;;;5108673;28;20038;-80
2022/10/12 08:01:08;;;;;;;11.70;6.38;;;8.50;99.90;;;;;;5094063;28;20644;-80
2022/10/12 08:03:35;;;;;;;12.85;6.03;;;8.50;99.90;;;;;;5093629;28;20043;-79
2022/10/12 08:06:08;;;;;;;11.50;5.97;;;8.60;99.90;;;;;;5094394;28;20044;-79
2022/10/12 08:08:34;;;;;;;12.43;6.40;;;8.80;99.90;;;;;;5093847;28;20036;-80
2022/10/12 08:11:03;;;;;;;12.00;6.22;;;8.90;99.90;;;;;;5093539;28;20040;-80
2022/10/12 08:13:29;;;;;;;12.88;6.60;;;9.10;99.90;;;;;;5093680;28;20050;-80
2022/10/12 08:15:55;;;;;;;13.57;6.15;;;9.20;99.90;;;;;;5093608;28;20047;-79
2022/10/12 08:18:20;;;;;;;15.25;6.55;;;9.30;99.90;;;;;;5093708;28;20511;-79
2022/10/12 08:20:46;;;;;;;15.80;7.07;;;9.20;99.90;;;;;;5093615;28;20036;-80
2022/10/12 08:23:11;;;;;;;17.52;7.20;;;9.20;99.90;;;;;;5093585;28;20066;-79
2022/10/12 08:25:37;;;;;;;13.77;6.82;;;9.20;99.90;;;;;;5093951;28;20039;-80
2022/10/12 08:28:05;;;;;;;14.90;7.05;;;9.20;99.90;;;;;;5094512;28;20052;-80
2022/10/12 08:30:32;;;;;;;13.93;6.68;;;9.30;99.90;;;;;;5093383;28;20520;-80
2022/10/12 08:32:58;;;;;;;16.65;7.50;;;9.30;99.90;;;;;;5093490;28;20044;-80
2022/10/12 08:35:23;;;;;;;13.48;6.97;;;9.40;99.90;;;;;;5093653;28;20405;-80
2022/10/12 08:37:49;;;;;;;13.93;7.00;;;9.40;99.90;;;;;;5093308;28;20460;-79
2022/10/12 08:40:24;;;;;;;16.08;7.93;;;9.40;99.90;;;;;;5093898;28;20093;-80
2022/10/12 08:43:05;;;;;;;15.23;7.45;;;9.40;99.90;;;;;;5093284;28;20558;-79
2022/10/12 08:45:46;;;;;;;14.38;7.40;;;9.40;99.90;;;;;;5078276;28;20050;-80
2022/10/12 08:48:27;;;;;;;18.67;7.85;;;9.40;99.90;;;;;;5076501;28;20169;-80
2022/10/12 08:51:03;;;;;;;13.98;7.25;;;9.40;99.90;;;;;;5093730;28;20044;-80
2022/10/12 08:53:54;;;;;;;17.17;8.45;;;9.40;99.90;;;;;;5092140;28;20048;-80
2022/10/12 08:56:21;;;;;;;16.55;8.00;;;9.40;99.90;;;;;;5092935;28;20412;-79
2022/10/12 08:58:48;;;;;;;17.38;8.52;;;9.40;99.90;;;;;;5091144;28;20032;-80
2022/10/12 09:01:17;;;;;;;21.50;9.65;;;9.40;99.90;;;;;;5093098;28;20044;-79
2022/10/12 09:04:13;;;;;;;12.57;8.38;;;9.40;99.90;;;;;;5076186;28;20557;-80
2022/10/12 09:07:09;;;;;;;27.88;8.98;;;9.50;99.90;;;;;;5076245;28;20044;-80
2022/10/12 09:09:39;;;;;;;16.83;8.38;;;9.60;99.90;;;;;;5084954;28;20047;-80
2022/10/12 09:12:32;;;;;;;18.83;9.95;;;9.60;99.90;;;;;;5093974;28;20165;-80
2022/10/12 09:15:02;;;;;;;20.80;8.65;;;9.70;99.90;;;;;;5093009;28;20040;-80
2022/10/12 09:18:11;;;;;;;17.73;8.88;;;9.90;99.90;;;;;;5092721;28;20039;-80
2022/10/12 09:20:55;;;;;;;14.23;7.88;;;10.00;99.90;;;;;;5032967;28;20051;-80
2022/10/12 09:23:25;;;;;;;;;;;10.20;99.90;;;;;;5091666;28;20048;-80
2022/10/12 09:26:00;;;;;;;13.13;6.82;;;10.30;99.90;;;;;;5092936;28;19920;-80
2022/10/12 09:28:35;;;;;;;16.60;5.43;;;10.40;99.90;;;;;;5076262;28;20396;-79
2022/10/12 09:31:10;;;;;;;10.35;5.28;;;10.40;99.90;;;;;;5094325;28;20401;-80
2022/10/12 09:33:49;;;;;;;14.60;5.53;;;10.60;99.90;;;;;;5099898;28;20123;-80
2022/10/12 09:36:20;;;;;;;14.35;5.28;;;10.70;99.90;;;;;;5075948;28;20123;-80
2022/10/12 09:38:47;;;;;;;12.32;5.07;;;10.80;99.90;;;;;;5092593;28;20578;-81
2022/10/12 09:41:35;;;;;;;11.25;4.47;;;10.90;99.90;;;;;;5092316;28;20412;-80
2022/10/12 09:44:02;;;;;;;11.98;4.18;;;10.90;99.90;;;;;;5092371;28;20085;-80
2022/10/12 09:46:40;;;;;;;12.68;4.60;;;11.00;99.90;;;;;;5075317;28;20036;-80
2022/10/12 09:49:06;;;;;;;10.43;4.30;;;11.00;99.90;;;;;;5075524;28;20047;-80
2022/10/12 09:51:32;;;;;;;10.98;3.83;;;11.20;99.90;;;;;;5092596;28;20035;-80
2022/10/12 09:54:02;;;;;;;14.82;4.80;;;11.20;99.90;;;;;;5092176;28;20093;-81
2022/10/12 09:56:43;;;;;;;11.55;4.47;;;11.30;99.90;;;;;;5092728;28;20036;-81
2022/10/12 09:59:29;;;;;;;12.38;5.38;;;11.40;99.90;;;;;;5103481;28;20402;-80
2022/10/12 10:02:16;;;;;;;14.32;4.68;;;11.50;99.90;;;;;;5092157;28;20378;-81
2022/10/12 10:04:44;;;;;;;10.50;4.65;;;11.50;99.90;;;;;;5091482;28;20183;-81
2022/10/12 10:07:21;;;;;;;11.45;4.43;;;11.60;99.90;;;;;;5074957;28;20035;-80
2022/10/12 10:10:11;;;;;;;9.70;3.72;;;11.70;99.90;;;;;;5092101;28;20044;-80
2022/10/12 10:12:50;;;;;;;12.07;4.15;;;11.80;99.90;;;;;;5092064;28;20046;-80
2022/10/12 10:15:29;;;;;;;10.75;3.92;;;11.90;99.90;;;;;;5092235;28;20070;-80
2022/10/12 10:18:18;;;;;;;14.13;4.43;;;12.00;99.90;;;;;;5091949;28;20032;-79
2022/10/12 10:20:58;;;;;;;11.10;3.63;;;12.10;99.90;;;;;;5091704;28;20039;-80
2022/10/12 10:23:27;;;;;;;12.63;3.60;;;12.20;99.90;;;;;;5092279;28;20429;-80
2022/10/12 10:26:12;;;;;;;12.07;3.67;;;12.40;99.90;;;;;;5092085;28;20378;-80
2022/10/12 10:28:51;;;;;;;10.65;3.17;;;12.50;99.90;;;;;;5092139;28;20051;-81
2022/10/12 10:31:21;;;;;;;7.50;2.60;;;12.60;99.90;;;;;;5091930;28;20043;-79
2022/10/12 10:34:17;;;;;;;12.98;2.85;;;12.60;99.90;;;;;;5092784;28;20047;-80
2022/10/12 10:37:04;;;;;;;10.70;2.25;;;12.70;99.90;;;;;;5093118;28;20046;-80
2022/10/12 10:39:54;;;;;;;11.85;2.80;;;12.80;99.90;;;;;;5093313;28;20110;-80
2022/10/12 10:42:38;;;;;;;11.10;2.65;;;12.90;99.90;;;;;;5092784;28;20124;-80
2022/10/12 10:45:32;;;;;;;16.83;4.00;;;13.00;99.90;;;;;;5093013;28;20035;-80
2022/10/12 10:48:20;;;;;;;11.77;2.85;;;13.10;99.90;;;;;;5094036;28;20496;-80
2022/10/12 10:50:52;;;;;;;11.88;2.72;;;13.10;99.90;;;;;;5091424;28;20089;-79
2022/10/12 10:53:28;;;;;;;11.68;3.10;;;13.20;99.90;;;;;;5091567;28;20040;-79
2022/10/12 10:56:06;;;;;;;8.40;2.78;;;13.20;99.90;;;;;;5091774;28;20466;-80
2022/10/12 10:58:37;;;;;;;11.82;3.53;;;13.30;99.90;;;;;;5106339;28;20437;-81
2022/10/12 11:01:22;;;;;;;11.43;3.10;;;13.40;99.90;;;;;;5074172;28;20072;-80
2022/10/12 11:03:55;;;;;;;13.38;3.10;;;13.50;99.90;;;;;;5091090;28;20043;-80
2022/10/12 11:06:38;;;;;;;12.15;2.65;;;13.50;99.90;;;;;;5092043;28;20040;-81
2022/10/12 11:09:11;;;;;;;9.90;2.80;;;13.60;99.90;;;;;;5092715;28;20122;-82
2022/10/12 11:11:39;;;;;;;9.68;3.63;;;13.60;99.90;;;;;;5091361;28;20127;-83
2022/10/12 11:14:18;;;;;;;11.13;2.90;;;13.60;99.90;;;;;;5091222;28;20048;-81
2022/10/12 11:17:09;;;;;;;10.68;2.88;;;13.70;99.90;;;;;;5074913;28;20043;-83
2022/10/12 11:19:48;;;;;;;11.50;2.53;;;13.80;99.90;;;;;;5078402;28;20040;-81
2022/10/12 11:22:45;;;;;;;9.80;2.45;;;13.90;99.90;;;;;;5077317;28;20032;-81
2022/10/12 11:25:37;;;;;;;8.35;2.85;;;14.00;99.90;;;;;;5094805;28;20036;-81
2022/10/12 11:28:12;;;;;;;12.35;3.65;;;14.10;99.90;;;;;;5095077;28;20036;-81
2022/10/12 11:30:42;;;;;;;9.75;2.53;;;14.20;99.90;;;;;;5094687;28;20040;-81
2022/10/12 11:33:20;;;;;;;9.35;2.63;;;14.30;99.90;;;;;;5095475;28;20501;-81
2022/10/12 11:35:46;;;;;;;11.18;2.90;;;14.30;99.90;;;;;;5094033;28;20540;-81
2022/10/12 11:38:34;;;;;;;10.13;2.00;;;14.50;99.90;;;;;;5094700;28;20032;-81
2022/10/12 11:41:06;;;;;;;8.88;2.20;;;14.60;99.90;;;;;;5094031;28;20162;-81
2022/10/12 11:43:51;;;;;;;8.07;2.08;;;14.70;99.90;;;;;;5095118;28;20078;-82
2022/10/12 11:46:22;;;;;;;5.80;1.63;;;14.80;99.90;;;;;;5095594;28;20039;-81
2022/10/12 11:49:24;;;;;;;7.05;1.85;;;14.80;99.90;;;;;;5094802;28;20658;-80
2022/10/12 11:51:54;;;;;;;7.40;1.90;;;15.00;99.90;;;;;;5094295;28;20396;-81
2022/10/12 11:54:56;;;;;;;8.32;2.53;;;15.20;99.90;;;;;;5093440;28;20055;-82
2022/10/12 11:57:27;;;;;;;7.55;1.92;;;15.30;99.90;;;;;;5103652;28;20190;-81
2022/10/12 11:59:54;;;;;;;7.07;1.60;;;15.50;99.90;;;;;;5083290;28;20036;-81
2022/10/12 12:02:36;;;;;;;8.13;2.40;;;15.50;99.90;;;;;;5094388;28;20044;-80
2022/10/12 12:05:03;;;;;;;5.65;1.75;;;15.60;99.90;;;;;;5077489;28;20111;-81
2022/10/12 12:07:44;;;;;;;7.15;2.35;;;15.80;99.90;;;;;;5094595;28;20059;-82
2022/10/12 12:10:25;;;;;;;7.95;2.38;;;15.80;99.90;;;;;;5094458;28;20497;-80
2022/10/12 12:13:10;;;;;;;6.70;2.05;;;15.90;99.90;;;;;;5093767;28;20169;-80
2022/10/12 12:15:37;;;;;;;8.95;2.10;;;16.00;99.90;;;;;;5093933;28;20044;-80
2022/10/12 12:18:28;;;;;;;6.95;1.60;;;16.10;99.90;;;;;;5094485;28;20036;-79
2022/10/12 12:21:06;;;;;;;7.53;1.83;;;16.20;99.90;;;;;;5076581;28;20047;-80
2022/10/12 12:23:40;;;;;;;7.47;1.90;;;16.30;99.90;;;;;;5094306;28;20047;-81
2022/10/12 12:26:14;;;;;;;8.40;2.15;;;16.30;99.90;;;;;;5094570;28;20044;-80
2022/10/12 12:29:05;;;;;;;5.32;1.60;;;16.40;99.90;;;;;;5077290;28;20040;-80
2022/10/12 12:31:30;;;;;;;8.25;2.33;;;16.40;99.90;;;;;;5086476;28;20056;-80
2022/10/12 12:34:10;;;;;;;8.65;1.83;;;16.50;99.90;;;;;;5094059;28;20054;-80
2022/10/12 12:36:41;;;;;;;5.45;1.75;;;16.50;99.90;;;;;;5094709;28;20043;-80
2022/10/12 12:39:19;;;;;;;7.97;2.22;;;16.50;99.90;;;;;;5095117;28;20042;-79
2022/10/12 12:41:58;;;;;;;6.55;1.95;;;16.40;99.90;;;;;;5093845;28;20071;-80
2022/10/12 12:44:35;;;;;;;8.30;2.05;;;16.40;99.90;;;;;;5094250;28;20040;-81
2022/10/12 12:47:00;;;;;;;7.35;1.80;;;16.40;99.90;;;;;;5077374;28;20065;-81
2022/10/12 12:49:40;;;;;;;6.07;1.83;;;16.40;99.90;;;;;;5077086;28;20122;-81
2022/10/12 12:52:15;;;;;;;6.78;1.60;;;16.40;99.90;;;;;;5095040;28;20048;-81
2022/10/12 12:55:06;;;;;;;8.27;1.88;;;16.50;99.90;;;;;;5077145;28;20036;-80
2022/10/12 12:57:47;;;;;;;8.68;1.60;;;16.60;99.90;;;;;;5103820;28;20047;-80
2022/10/12 13:00:20;;;;;;;7.38;1.77;;;16.50;99.90;;;;;;5097313;28;20047;-80
2022/10/12 13:03:14;;;;;;;7.38;1.90;;;16.60;99.90;;;;;;5094273;28;20093;-81
2022/10/12 13:06:18;;;;;;;4.88;1.40;;;16.60;99.90;;;;;;5094083;28;20040;-81
2022/10/12 13:09:23;;;;;;;7.82;1.60;;;16.60;99.90;;;;;;5077846;28;20046;-80
2022/10/12 13:12:20;;;;;;;7.68;1.88;;;16.60;99.90;;;;;;5076657;28;20043;-81
2022/10/12 13:14:55;;;;;;;6.88;1.65;;;16.70;99.90;;;;;;5094643;28;20047;-80